25. September 2022

Uhrzeit Code Wetter Temp. Sichtweite Wolkendecke Wind METAR/SPECI
03:50
V
12 °C 10 km+ 7.800 ft Var Var 1 kt METAR EDLV 250150Z AUTO VRB01KT 9999 // FEW065/// OVC078/// 12/10 Q1015
03:20
V
12 °C 10 km+ 6.300 ft Var Var 2 kt METAR EDLV 250120Z AUTO VRB02KT 9999 // FEW055/// BKN063/// BKN092/// 12/10 Q1015
02:50
V
12 °C 10 km+ 8.900 ft Var Var 1 kt METAR EDLV 250050Z AUTO VRB01KT 9999 // SCT051/// OVC089/// 12/10 Q1015
02:20
V
12 °C 10 km+ 8.700 ft Var Var 2 kt METAR EDLV 250020Z AUTO VRB02KT 9999 // FEW049/// SCT061/// OVC087/// 12/11 Q1015
01:50
V
13 °C 10 km+ 4.300 ft Var Var 1 kt METAR EDLV 242350Z AUTO VRB01KT 9999 // BKN043/// BKN060/// OVC082/// 13/11 Q1015
01:20
V
13 °C 10 km+ 5.700 ft 020° 020° 3 kt METAR EDLV 242320Z AUTO 02003KT 280V090 9999 // SCT043/// BKN057/// OVC084/// 13/11 Q1015
00:50
V
13 °C 10 km+ 4.000 ft Var Var 2 kt METAR EDLV 242250Z AUTO VRB02KT 9999 // FEW011/// OVC040/// 13/11 Q1015
00:20
V
13 °C 10 km+ 3.400 ft 030° 030° 3 kt METAR EDLV 242220Z AUTO 03003KT 340V090 9999 // OVC034/// 13/11 Q1015

24. September 2022

Uhrzeit Code Wetter Temp. Sichtweite Wolkendecke Wind METAR/SPECI
23:50
V
13 °C 10 km+ 3.000 ft 030° 030° 5 kt METAR EDLV 242150Z 03005KT 340V070 9999 OVC030 13/11 Q1015
23:20
M
13 °C 10 km+ 2.600 ft 020° 020° 4 kt METAR EDLV 242120Z 02004KT 320V100 9999 OVC026 13/11 Q1015
22:50
M
13 °C 10 km+ 2.400 ft 020° 020° 5 kt METAR EDLV 242050Z 02005KT 340V070 9999 FEW012 OVC024 13/11 Q1014
22:20
M
13 °C 10 km+ 2.200 ft Var Var 2 kt METAR EDLV 242020Z VRB02KT 9999 FEW011 OVC022 13/12 Q1014
21:50
M
13 °C 10 km+ 1.900 ft Var Var 3 kt METAR EDLV 241950Z VRB03KT 9999 SCT011 OVC019 13/12 Q1014
21:20
I
13 °C 9 km 700 ft Var Var 2 kt METAR EDLV 241920Z VRB02KT 9000 -DZ SCT004 BKN007 OVC017 13/12 Q1014
20:50
I
13 °C 5 km 600 ft Var Var 1 kt METAR EDLV 241850Z VRB01KT 5000 -RA BR FEW003 BKN006 OVC013 13/12 Q1014
20:20
L
13 °C 6 km 300 ft Var Var 2 kt METAR EDLV 241820Z VRB02KT 6000 DZ BKN003 BKN017 13/12 Q1014
19:50
I
13 °C 10 km+ 600 ft 320° 320° 3 kt METAR EDLV 241750Z 32003KT 290V350 9999 BKN006 13/12 Q1013
19:20
V
13 °C 10 km+ - 310° 310° 4 kt METAR EDLV 241720Z 31004KT 280V340 9999 FEW008 13/11 Q1013
18:50
V
14 °C 10 km+ - 320° 320° 6 kt METAR EDLV 241650Z 32006KT 290V030 9999 SCT009 14/12 Q1013
18:20
V
14 °C 10 km+ - 320° 320° 4 kt METAR EDLV 241620Z 32004KT 290V010 9999 FEW009 SCT011 14/13 Q1013
17:50
V
15 °C 10 km+ - 320° 320° 4 kt METAR EDLV 241550Z 32004KT 290V350 9999 FEW013 15/12 Q1013
17:20
V
15 °C 10 km+ - 330° 330° 3 kt METAR EDLV 241520Z 33003KT 260V060 CAVOK 15/12 Q1013
16:50
V
15 °C 10 km+ - 320° 320° 5 kt METAR EDLV 241450Z 32005KT 290V360 9999 -RA FEW015 15/12 Q1013
16:20
V
15 °C 10 km+ - 330° 330° 4 kt METAR EDLV 241420Z 33004KT 300V010 9999 FEW018 15/12 Q1013
15:50
V
16 °C 10 km+ - 330° 330° 4 kt METAR EDLV 241350Z 33004KT 270V050 9999 FEW013 16/13 Q1013
15:20
V
15 °C 10 km+ - 320° 320° 4 kt METAR EDLV 241320Z 32004KT 300V360 9999 FEW012 SCT016 15/13 Q1013
14:50
V
16 °C 10 km+ - 290° 290° 5 kt METAR EDLV 241250Z 29005KT 260V340 9999 SCT015 16/13 Q1013
14:20
M
15 °C 10 km+ 1.700 ft 270° 270° 4 kt METAR EDLV 241220Z 27004KT 230V310 9999 SCT012 BKN017 15/13 Q1013
13:50
M
15 °C 10 km+ 1.300 ft 250° 250° 5 kt METAR EDLV 241150Z 25005KT 220V320 9999 FEW011 BKN013 15/13 Q1013
13:20
V
15 °C 10 km+ - 240° 240° 5 kt METAR EDLV 241120Z 24005KT 200V270 9999 -RA FEW010 15/13 Q1013
12:50
V
14 °C 9 km - 250° 250° 6 kt METAR EDLV 241050Z 25006KT 220V280 9000 -RA FEW007 SCT010 14/13 Q1013
12:20
M
14 °C 9 km 1.000 ft 220° 220° 5 kt METAR EDLV 241020Z 22005KT 9000 -RA FEW008 BKN010 14/13 Q1013
11:50
V
14 °C 8 km 3.800 ft 230° 230° 5 kt METAR EDLV 240950Z 23005KT 200V270 8000 -RA SCT008 BKN038 14/13 Q1013
11:20
M
14 °C 8 km 1.900 ft 210° 210° 6 kt METAR EDLV 240920Z 21006KT 8000 -RA FEW007 BKN019 OVC026 14/13 Q1013
10:50
V
14 °C 8 km - 200° 200° 6 kt METAR EDLV 240850Z 20006KT 8000 -RA FEW028 14/13 Q1012
10:20
M
13 °C 7 km - 200° 200° 5 kt METAR EDLV 240820Z 20005KT 170V240 7000 -RA FEW014 13/12 Q1012
09:50
M
13 °C 7 km 1.600 ft 190° 190° 5 kt METAR EDLV 240750Z 19005KT 7000 -RA BKN016 BKN041 13/12 Q1012
09:20
M
13 °C 7 km - 180° 180° 5 kt METAR EDLV 240720Z 18005KT 7000 -DZ FEW019 13/12 Q1012
08:50
M
13 °C 5 km - 170° 170° 5 kt METAR EDLV 240650Z 17005KT 5000 BR FEW022 13/12 Q1012
08:20
M
13 °C 5 km - 170° 170° 3 kt METAR EDLV 240620Z 17003KT 5000 BR FEW021 13/12 Q1012
07:50
M
12 °C 5 km - 180° 180° 4 kt METAR EDLV 240550Z 18004KT 5000 -DZ NSC 12/12 Q1012
07:20
M
13 °C 6 km - 180° 180° 4 kt METAR EDLV 240520Z 18004KT 160V220 6000 -DZ NSC 13/12 Q1012
06:50
M
12 °C 6 km - 180° 180° 5 kt METAR EDLV 240450Z 18005KT 6000 FEW026 12/12 Q1011
06:20
M
12 °C 6 km - 170° 170° 4 kt METAR EDLV 240420Z 17004KT 6000 FEW028 12/12 Q1012
05:50
M
12 °C 6 km - 170° 170° 5 kt METAR EDLV 240350Z 17005KT 6000 SCT025 12/12 Q1012
05:20
V
12 °C 8 km - 170° 170° 4 kt METAR EDLV 240320Z 17004KT 8000 FEW027 12/12 Q1012
04:50
V
12 °C 8 km - 170° 170° 5 kt METAR EDLV 240250Z 17005KT 8000 FEW033 SCT040 12/12 Q1012
04:20
V
12 °C 8 km 13.000 ft 170° 170° 4 kt METAR EDLV 240220Z AUTO 17004KT 8000 // FEW030/// OVC130/// 12/11 Q1012
03:50
V
13 °C 9 km 12.000 ft 190° 190° 3 kt METAR EDLV 240150Z AUTO 19003KT 9000 // OVC120/// 13/11 Q1012
03:20
V
13 °C 10 km+ 10.000 ft 210° 210° 4 kt METAR EDLV 240120Z AUTO 21004KT 9999 // FEW031/// SCT039/// OVC100/// 13/12 Q1013
02:50
V
13 °C 9 km 5.100 ft 180° 180° 3 kt METAR EDLV 240050Z AUTO 18003KT 9000 // FEW033/// BKN051/// OVC090/// 13/12 Q1013
02:20
V
13 °C 10 km+ 9.000 ft 190° 190° 3 kt METAR EDLV 240020Z AUTO 19003KT 170V230 9999 // FEW037/// OVC090/// 13/12 Q1013
01:50
V
13 °C 10 km+ 8.000 ft 230° 230° 4 kt METAR EDLV 232350Z AUTO 23004KT 200V260 9999 // SCT066/// OVC080/// 13/12 Q1013
01:20
V
13 °C 10 km+ 5.900 ft 230° 230° 4 kt METAR EDLV 232320Z AUTO 23004KT 200V270 9999 // SCT048/// OVC059/// 13/12 Q1013
00:50
M
13 °C 6 km 4.100 ft Var 000° 0 kt METAR EDLV 232250Z AUTO 00000KT 6000 // BKN041/// OVC053/// 13/12 Q1013
00:20
M
13 °C 6 km 3.500 ft 250° 250° 4 kt METAR EDLV 232220Z AUTO 25004KT 230V290 6000 // SCT028/// BKN035/// OVC058/// 13/13 Q1014

23. September 2022

Uhrzeit Code Wetter Temp. Sichtweite Wolkendecke Wind METAR/SPECI
23:50
M
13 °C 7 km - 270° 270° 3 kt METAR EDLV 232150Z 27003KT 7000 -RA FEW021 SCT034 13/12 Q1014
23:20
V
14 °C 10 km+ - 270° 270° 5 kt METAR EDLV 232120Z 27005KT 9999 -RA FEW028 14/12 Q1013
22:50
V
15 °C 10 km+ - 210° 210° 4 kt METAR EDLV 232050Z 21004KT 9999 -RA FEW032 15/11 Q1014
22:20
V
14 °C 10 km+ - 190° 190° 3 kt METAR EDLV 232020Z 19003KT 9999 FEW033 14/11 Q1014
21:50
V
15 °C 10 km+ 3.400 ft 180° 180° 4 kt METAR EDLV 231950Z 18004KT 9999 BKN034 15/11 Q1014
21:20
V
15 °C 10 km+ 3.200 ft 190° 190° 3 kt METAR EDLV 231920Z 19003KT 9999 OVC032 15/11 Q1014
20:50
V
15 °C 10 km+ - 190° 190° 2 kt METAR EDLV 231850Z 19002KT 9999 FEW033 SCT039 15/11 Q1014
20:20
V
15 °C 9 km 3.700 ft 190° 190° 4 kt METAR EDLV 231820Z 19004KT 9000 BKN037 15/11 Q1014
19:50
V
15 °C 10 km+ - 210° 210° 3 kt METAR EDLV 231750Z 21003KT CAVOK 15/11 Q1014
19:20
V
16 °C 10 km+ - 190° 190° 3 kt METAR EDLV 231720Z 19003KT CAVOK 16/10 Q1014
18:50
V
16 °C 10 km+ - 220° 220° 4 kt METAR EDLV 231650Z 22004KT CAVOK 16/10 Q1014
18:20
V
17 °C 10 km+ - 210° 210° 4 kt METAR EDLV 231620Z 21004KT CAVOK 17/10 Q1014
17:50
V
17 °C 10 km+ - 210° 210° 4 kt METAR EDLV 231550Z 21004KT CAVOK 17/09 Q1014
17:20
V
18 °C 10 km+ - 200° 200° 5 kt METAR EDLV 231520Z 20005KT 170V230 CAVOK 18/09 Q1014
16:50
V
18 °C 10 km+ - 210° 210° 5 kt METAR EDLV 231450Z 21005KT 190V250 CAVOK 18/09 Q1014
16:20
V
18 °C 10 km+ - 190° 190° 5 kt METAR EDLV 231420Z 19005KT 160V230 CAVOK 18/08 Q1014
15:50
V
18 °C 10 km+ - 200° 200° 6 kt METAR EDLV 231350Z 20006KT 160V230 CAVOK 18/08 Q1015
15:20
V
18 °C 10 km+ - 200° 200° 4 kt METAR EDLV 231320Z 20004KT 170V240 CAVOK 18/08 Q1015
14:50
I
18 °C 3,2 km - 210° 210° 4 kt METAR EDLV 231250Z 21004KT 140V240 9999 3200 NSC 18/08 Q1015
14:20
V
17 °C 10 km+ - Var Var 4 kt METAR EDLV 231220Z VRB04KT CAVOK 17/08 Q1015
13:50
V
17 °C 10 km+ - 190° 190° 4 kt METAR EDLV 231150Z 19004KT 130V250 CAVOK 17/09 Q1016
13:20
V
17 °C 10 km+ - 170° 170° 4 kt METAR EDLV 231120Z 17004KT 120V230 CAVOK 17/09 Q1016
12:50
V
16 °C 10 km+ - 190° 190° 4 kt METAR EDLV 231050Z 19004KT 130V240 CAVOK 16/08 Q1016
12:20
V
16 °C 10 km+ - 170° 170° 5 kt METAR EDLV 231020Z 17005KT 140V200 CAVOK 16/09 Q1016
11:50
V
14 °C 10 km+ - 180° 180° 5 kt METAR EDLV 230950Z 18005KT 150V210 CAVOK 14/08 Q1016
11:20
V
14 °C 10 km+ - 190° 190° 4 kt METAR EDLV 230920Z 19004KT 140V230 CAVOK 14/08 Q1016
10:50
V
13 °C 10 km+ - 170° 170° 5 kt METAR EDLV 230850Z 17005KT 150V210 CAVOK 13/08 Q1016
10:20
V
12 °C 10 km+ - 150° 150° 5 kt METAR EDLV 230820Z 15005KT 120V180 CAVOK 12/08 Q1016
09:50
V
10 °C 10 km+ - 160° 160° 4 kt METAR EDLV 230750Z 16004KT CAVOK 10/08 Q1016
09:20
V
10 °C 10 km+ - 140° 140° 3 kt METAR EDLV 230720Z 14003KT CAVOK 10/07 Q1016
08:50
V
9 °C 10 km+ - 140° 140° 3 kt METAR EDLV 230650Z 14003KT CAVOK 09/07 Q1016
08:20
V
9 °C 10 km+ - 150° 150° 4 kt METAR EDLV 230620Z 15004KT CAVOK 09/07 Q1016
07:50
V
8 °C 10 km+ - 130° 130° 3 kt METAR EDLV 230550Z 13003KT CAVOK 08/06 Q1016
07:20
V
8 °C 10 km+ - 140° 140° 3 kt METAR EDLV 230520Z 14003KT CAVOK 08/06 Q1016
06:50
V
8 °C 10 km+ - 140° 140° 5 kt METAR EDLV 230450Z 14005KT CAVOK 08/06 Q1016
06:20
V
9 °C 10 km+ - 140° 140° 6 kt METAR EDLV 230420Z 14006KT CAVOK 09/06 Q1016
05:50
V
9 °C 10 km+ - 140° 140° 6 kt METAR EDLV 230350Z 14006KT CAVOK 09/06 Q1017
05:20
V
9 °C 10 km+ - 140° 140° 5 kt METAR EDLV 230320Z 14005KT CAVOK 09/07 Q1017
04:50
V
9 °C 10 km+ 23.000 ft 140° 140° 5 kt METAR EDLV 230250Z AUTO 14005KT 9999 // BKN230/// 09/07 Q1017
04:20
V
9 °C 10 km+ 24.000 ft 150° 150° 5 kt METAR EDLV 230220Z AUTO 15005KT 9999 // BKN240/// 09/07 Q1017
03:50
V
9 °C 10 km+ 24.000 ft 150° 150° 6 kt METAR EDLV 230150Z AUTO 15006KT 9999 // BKN240/// 09/06 Q1017
03:20
V
9 °C 10 km+ - 150° 150° 5 kt METAR EDLV 230120Z AUTO 15005KT 9999 // FEW250/// 09/06 Q1018
02:50
V
10 °C 10 km+ - 160° 160° 5 kt METAR EDLV 230050Z AUTO 16005KT 9999 // NCD 10/07 Q1018
02:20
V
10 °C 10 km+ - 150° 150° 5 kt METAR EDLV 230020Z AUTO 15005KT 9999 // NCD 10/07 Q1018
01:50
V
10 °C 10 km+ - 150° 150° 5 kt METAR EDLV 222350Z AUTO 15005KT 9999 // NCD 10/07 Q1018
01:20
V
10 °C 10 km+ - 140° 140° 5 kt METAR EDLV 222320Z AUTO 14005KT 9999 // NCD 10/06 Q1018
00:50
V
10 °C 10 km+ - 140° 140° 6 kt METAR EDLV 222250Z AUTO 14006KT 9999 // NCD 10/06 Q1018
00:20
V
10 °C 10 km+ - 130° 130° 3 kt METAR EDLV 222220Z AUTO 13003KT 9999 // SCT230/// 10/07 Q1018

22. September 2022

Uhrzeit Code Wetter Temp. Sichtweite Wolkendecke Wind METAR/SPECI
23:50
V
9 °C 10 km+ - Var 000° 0 kt METAR EDLV 222150Z 00000KT CAVOK 09/06 Q1019
23:20
V
10 °C 10 km+ - Var Var 2 kt METAR EDLV 222120Z VRB02KT CAVOK 10/07 Q1019
22:50
V
10 °C 10 km+ - 100° 100° 1 kt METAR EDLV 222050Z 10001KT CAVOK 10/06 Q1019
22:20
V
10 °C 10 km+ - 120° 120° 1 kt METAR EDLV 222020Z 12001KT CAVOK 10/06 Q1019
21:50
V
11 °C 10 km+ - 120° 120° 1 kt METAR EDLV 221950Z 12001KT CAVOK 11/06 Q1019
21:20
I
11 °C 4,7 km - Var Var 2 kt METAR EDLV 221920Z VRB02KT 9999 4700 NSC 11/06 Q1020
20:50
V
11 °C 10 km+ - 130° 130° 2 kt METAR EDLV 221850Z 13002KT CAVOK 11/07 Q1020
20:20
V
13 °C 10 km+ - 110° 110° 1 kt METAR EDLV 221820Z 11001KT CAVOK 13/07 Q1020
19:50
V
14 °C 10 km+ - 110° 110° 1 kt METAR EDLV 221750Z 11001KT CAVOK 14/07 Q1020
19:20
V
16 °C 10 km+ - Var Var 1 kt METAR EDLV 221720Z VRB01KT CAVOK 16/07 Q1020
18:50
V
17 °C 10 km+ - 120° 120° 2 kt METAR EDLV 221650Z 12002KT CAVOK 17/06 Q1020
Ältere Daten

Wir und Dritte verfolgen dein Internetverhalten auf unserer Website mit Cookies. Wenn du fortfährst, gehen wir davon aus, dass du mit unserer Cookie-Richtlinie einverstanden bist. Mehr erfahren